Time;durP1;ratioP1;P1;durP2;ratioP2;P2;SDS_P1;SDS_P2;PMS_P1;PMS_P2;Temp;Humidity;BMP_temperature;BMP_pressure;BME280_temperature;BME280_humidity;BME280_pressure;Samples;Min_cycle;Max_cycle;Signal;HPM_P1;HPM_P2
2023/06/21 00:01:09;;;;;;;5.80;1.25;;;;;;;21.29;100.00;96143.06;5098338;28;20241;-70
2023/06/21 00:03:35;;;;;;;1.30;1.08;;;;;;;21.38;100.00;96146.16;5097712;28;20198;-70
2023/06/21 00:06:02;;;;;;;3.05;1.42;;;;;;;20.98;100.00;96138.31;5097822;28;20960;-71
2023/06/21 00:08:32;;;;;;;3.70;0.90;;;;;;;21.07;100.00;96146.75;5097414;28;20295;-71
2023/06/21 00:10:59;;;;;;;3.03;1.02;;;;;;;21.17;100.00;96147.72;5097210;28;20213;-70
2023/06/21 00:13:25;;;;;;;2.97;1.30;;;;;;;21.13;100.00;96143.91;5097902;28;20210;-70
2023/06/21 00:15:54;;;;;;;1.58;0.95;;;;;;;20.79;100.00;96136.09;5097538;28;20206;-70
2023/06/21 00:18:21;;;;;;;2.55;1.13;;;;;;;20.80;100.00;96134.22;5096671;28;20215;-70
2023/06/21 00:20:47;;;;;;;5.32;1.45;;;;;;;20.93;100.00;96134.75;5097426;28;20207;-71
2023/06/21 00:23:14;;;;;;;1.77;1.08;;;;;;;20.72;100.00;96135.44;5097734;28;20203;-70
2023/06/21 00:25:42;;;;;;;6.13;1.73;;;;;;;20.64;100.00;96140.34;5096441;28;20207;-70
2023/06/21 00:28:09;;;;;;;4.47;1.10;;;;;;;20.73;100.00;96129.03;5096959;28;20199;-70
2023/06/21 00:30:35;;;;;;;4.35;1.00;;;;;;;20.61;100.00;96117.56;5097613;28;20199;-70
2023/06/21 00:33:02;;;;;;;3.10;0.90;;;;;;;20.62;100.00;96132.56;5097324;28;20223;-69
2023/06/21 00:35:29;;;;;;;1.30;0.90;;;;;;;20.76;100.00;96128.56;5097126;28;20199;-70
2023/06/21 00:37:55;;;;;;;5.40;2.22;;;;;;;20.58;100.00;96127.94;5096572;28;20230;-71
2023/06/21 00:40:25;;;;;;;4.78;1.90;;;;;;;20.60;100.00;96131.19;5097081;28;20252;-70
2023/06/21 00:42:53;;;;;;;3.50;1.48;;;;;;;20.72;100.00;96123.88;5097017;28;20418;-70
2023/06/21 00:45:21;;;;;;;3.40;0.90;;;;;;;20.40;100.00;96123.59;5097493;28;20642;-70
2023/06/21 00:47:49;;;;;;;2.08;1.25;;;;;;;20.23;100.00;96127.28;5096413;28;20207;-71
2023/06/21 00:50:16;;;;;;;7.40;1.13;;;;;;;20.23;100.00;96127.28;5096602;28;20205;-71
2023/06/21 00:52:44;;;;;;;4.80;0.77;;;;;;;20.49;100.00;96130.19;5097223;28;20275;-71
2023/06/21 00:55:12;;;;;;;3.17;1.08;;;;;;;20.47;100.00;96123.47;5096933;28;20210;-70
2023/06/21 00:57:39;;;;;;;4.40;0.77;;;;;;;20.36;100.00;96125.13;5096003;28;20223;-70
2023/06/21 01:00:12;;;;;;;0.85;0.60;;;;;;;20.35;100.00;96128.03;5096903;28;20233;-71
2023/06/21 01:02:39;;;;;;;1.98;0.70;;;;;;;20.34;100.00;96123.72;5097839;28;20238;-70
2023/06/21 01:05:06;;;;;;;3.00;1.63;;;;;;;20.13;100.00;96119.06;5096420;28;20200;-70
2023/06/21 01:07:43;;;;;;;5.68;1.42;;;;;;;20.29;100.00;96126.34;5096243;28;20199;-70
2023/06/21 01:10:22;;;;;;;3.50;1.10;;;;;;;20.22;100.00;96125.66;5097124;28;20199;-70
2023/06/21 01:13:00;;;;;;;2.28;0.93;;;;;;;20.23;100.00;96136.13;5096730;28;20230;-71
2023/06/21 01:15:34;;;;;;;1.90;0.93;;;;;;;20.28;100.00;96130.06;5096402;28;20210;-70
2023/06/21 01:18:01;;;;;;;5.03;0.95;;;;;;;20.40;100.00;96139.66;5096307;28;20339;-70
2023/06/21 01:20:30;;;;;;;5.93;2.40;;;;;;;20.30;100.00;96149.34;5096880;28;20814;-70
2023/06/21 01:23:12;;;;;;;4.85;1.25;;;;;;;20.35;100.00;96146.78;5096815;28;20223;-70
2023/06/21 01:25:46;;;;;;;2.13;0.95;;;;;;;20.33;100.00;96155.03;5096813;28;20683;-70
2023/06/21 01:28:31;;;;;;;2.13;1.05;;;;;;;20.31;100.00;96165.19;5096089;28;20255;-70
2023/06/21 01:31:02;;;;;;;2.95;1.10;;;;;;;20.21;100.00;96172.19;5096830;28;20209;-71
2023/06/21 01:33:31;;;;;;;3.40;0.98;;;;;;;20.21;100.00;96166.84;5096910;28;20290;-71
2023/06/21 01:35:57;;;;;;;5.97;2.00;;;;;;;20.15;100.00;96172.31;5097878;28;20249;-70
2023/06/21 01:38:24;;;;;;;3.53;1.75;;;;;;;20.21;100.00;96166.84;5099792;28;20219;-69
2023/06/21 01:40:51;;;;;;;3.13;1.83;;;;;;;20.20;100.00;96170.59;5100731;28;20235;-70
2023/06/21 01:43:18;;;;;;;4.45;1.30;;;;;;;20.19;100.00;96174.31;5100840;27;20232;-69
2023/06/21 01:45:45;;;;;;;7.53;1.52;;;;;;;20.16;100.00;96169.41;5099885;28;20199;-69
2023/06/21 01:48:13;;;;;;;1.75;0.75;;;;;;;20.18;100.00;96172.66;5100090;28;20192;-69
2023/06/21 01:50:41;;;;;;;3.42;0.80;;;;;;;20.17;100.00;96175.59;5100639;28;20210;-70
2023/06/21 01:53:09;;;;;;;4.93;1.35;;;;;;;20.05;100.00;96180.97;5099399;27;20338;-69
2023/06/21 01:55:37;;;;;;;2.03;1.02;;;;;;;20.01;100.00;96187.84;5100653;27;20617;-69
2023/06/21 01:58:04;;;;;;;2.63;1.30;;;;;;;20.05;100.00;96193.50;5099570;28;20223;-70
2023/06/21 02:00:30;;;;;;;1.92;1.10;;;;;;;19.99;100.00;96187.25;5100069;28;20244;-70
2023/06/21 02:03:03;;;;;;;5.00;1.23;;;;;;;20.17;100.00;96189.78;5100387;28;20227;-70
2023/06/21 02:05:31;;;;;;;2.67;1.35;;;;;;;20.08;100.00;96190.38;5100319;28;20210;-70
2023/06/21 02:08:00;;;;;;;1.60;1.02;;;;;;;20.09;100.00;96189.34;5099907;28;20199;-69
2023/06/21 02:10:28;;;;;;;4.13;1.33;;;;;;;20.04;100.00;96195.38;5099906;28;20210;-69
2023/06/21 02:12:54;;;;;;;4.88;1.65;;;;;;;19.96;100.00;96195.75;5100728;28;20219;-70
2023/06/21 02:15:21;;;;;;;5.85;1.73;;;;;;;19.95;100.00;96194.13;5100098;28;20207;-70
2023/06/21 02:17:49;;;;;;;3.30;1.27;;;;;;;19.75;100.00;96196.31;5099126;28;20223;-69
2023/06/21 02:20:16;;;;;;;4.35;1.25;;;;;;;19.87;100.00;96199.81;5100142;28;20248;-69
2023/06/21 02:22:45;;;;;;;2.60;1.50;;;;;;;19.85;100.00;96204.56;5099824;28;20276;-69
2023/06/21 02:25:12;;;;;;;1.80;1.15;;;;;;;19.70;100.00;96211.44;5099535;28;20207;-70
2023/06/21 02:27:39;;;;;;;3.80;1.50;;;;;;;19.68;100.00;96208.22;5099499;28;20210;-69
2023/06/21 02:30:08;;;;;;;4.47;1.77;;;;;;;19.58;100.00;96205.31;5099618;28;20675;-69
2023/06/21 02:32:34;;;;;;;2.13;1.40;;;;;;;19.59;100.00;96213.09;5099129;28;20729;-70
2023/06/21 02:35:01;;;;;;;3.42;1.42;;;;;;;19.62;100.00;96220.63;5096827;28;20207;-69
2023/06/21 02:37:29;;;;;;;3.03;1.52;;;;;;;19.44;100.00;96224.50;5098918;27;20882;-70
2023/06/21 02:39:57;;;;;;;1.90;1.08;;;;;;;19.42;100.00;96224.69;5099208;28;20207;-69
2023/06/21 02:42:24;;;;;;;1.33;1.08;;;;;;;19.43;100.00;96228.19;5099415;28;21000;-69
2023/06/21 02:44:50;;;;;;;1.50;0.88;;;;;;;19.52;100.00;96234.81;5099312;28;20321;-70
2023/06/21 02:47:16;;;;;;;3.55;1.63;;;;;;;19.47;100.00;96240.84;5098203;28;20574;-71
2023/06/21 02:49:43;;;;;;;3.55;1.23;;;;;;;19.39;100.00;96251.09;5098986;28;20211;-71
2023/06/21 02:52:09;;;;;;;9.38;2.35;;;;;;;19.49;100.00;96253.97;5099539;28;20226;-70
2023/06/21 02:54:36;;;;;;;7.70;1.77;;;;;;;19.40;100.00;96261.53;5098607;28;20205;-70
2023/06/21 02:57:04;;;;;;;5.57;1.25;;;;;;;19.55;100.00;96271.78;5099120;28;20207;-71
2023/06/21 02:59:31;;;;;;;4.22;1.50;;;;;;;19.35;100.00;96265.97;5098541;28;20234;-70
2023/06/21 03:01:57;;;;;;;1.65;0.70;;;;;;;19.36;100.00;96268.41;5098995;27;20223;-69
2023/06/21 03:04:23;;;;;;;6.10;1.33;;;;;;;19.39;100.00;96267.13;5099275;28;20207;-69
2023/06/21 03:06:50;;;;;;;3.35;1.00;;;;;;;19.44;100.00;96261.91;5099362;28;20207;-69
2023/06/21 03:09:16;;;;;;;3.25;1.23;;;;;;;19.31;100.00;96268.28;5098361;28;20203;-70
2023/06/21 03:11:44;;;;;;;3.17;1.08;;;;;;;19.41;100.00;96254.34;5098695;28;20317;-71
2023/06/21 03:14:12;;;;;;;2.00;0.80;;;;;;;19.45;100.00;96255.50;5099357;28;20207;-71
2023/06/21 03:16:39;;;;;;;7.30;1.40;;;;;;;19.32;100.00;96251.19;5098473;28;21021;-70
2023/06/21 03:19:05;;;;;;;1.75;1.17;;;;;;;19.34;100.00;96245.63;5097778;28;21129;-71
2023/06/21 03:21:33;;;;;;;4.05;1.20;;;;;;;19.28;100.00;96243.84;5099006;28;20313;-69
2023/06/21 03:24:00;;;;;;;9.52;1.35;;;;;;;19.31;100.00;96254.06;5099170;28;20333;-69
2023/06/21 03:26:26;;;;;;;2.05;1.20;;;;;;;19.35;100.00;96261.41;5098325;28;20199;-69
2023/06/21 03:28:55;;;;;;;4.20;1.20;;;;;;;19.36;100.00;96270.25;5098053;28;20203;-69
2023/06/21 03:31:22;;;;;;;2.17;1.10;;;;;;;19.39;100.00;96278.63;5098858;28;20223;-70
2023/06/21 03:33:49;;;;;;;6.85;1.25;;;;;;;19.23;100.00;96278.47;5098268;28;20211;-69
2023/06/21 03:36:15;;;;;;;5.18;1.05;;;;;;;19.37;100.00;96280.69;5098134;28;20203;-68
2023/06/21 03:38:42;;;;;;;3.33;1.75;;;;;;;19.34;100.00;96283.84;5097645;28;20258;-67
2023/06/21 03:41:08;;;;;;;2.28;0.90;;;;;;;19.36;100.00;96286.28;5097984;28;20219;-68
2023/06/21 03:43:35;;;;;;;1.80;1.30;;;;;;;19.40;100.00;96296.28;5097811;28;20583;-69
2023/06/21 03:46:01;;;;;;;2.35;1.13;;;;;;;19.49;100.00;96284.22;5098798;28;20749;-69
2023/06/21 03:48:29;;;;;;;4.40;1.10;;;;;;;19.48;100.00;96287.13;5097728;28;20572;-70
2023/06/21 03:50:55;;;;;;;3.08;1.33;;;;;;;19.50;100.00;96301.06;5097690;28;20203;-69
2023/06/21 03:53:22;;;;;;;3.35;1.13;;;;;;;19.53;100.00;96290.72;5098084;28;20242;-70
2023/06/21 03:55:48;;;;;;;3.13;1.10;;;;;;;19.61;100.00;96291.22;5098503;28;20216;-69
2023/06/21 03:58:15;;;;;;;6.38;1.50;;;;;;;19.67;100.00;96303.63;5096928;28;20254;-69
2023/06/21 04:00:41;;;;;;;11.20;1.75;;;;;;;19.53;100.00;96311.31;5096603;28;20214;-70
2023/06/21 04:03:08;;;;;;;1.80;1.10;;;;;;;19.60;100.00;96305.63;5097824;28;20230;-69
2023/06/21 04:05:36;;;;;;;5.18;1.88;;;;;;;19.73;100.00;96289.34;5098091;28;20222;-69
2023/06/21 04:08:02;;;;;;;2.55;1.88;;;;;;;19.66;100.00;96280.63;5096862;28;20215;-69
2023/06/21 04:10:28;;;;;;;4.38;1.52;;;;;;;19.73;100.00;96278.66;5097657;28;20263;-69
2023/06/21 04:12:55;;;;;;;1.55;0.90;;;;;;;19.73;100.00;96286.69;5097546;28;20223;-70
2023/06/21 04:15:22;;;;;;;6.45;1.48;;;;;;;19.91;100.00;96294.63;5097507;27;20203;-70
2023/06/21 04:17:49;;;;;;;2.80;1.25;;;;;;;20.10;100.00;96303.31;5097031;28;21124;-68
2023/06/21 04:20:15;;;;;;;2.15;1.10;;;;;;;20.23;100.00;96314.59;5097785;28;20195;-71
2023/06/21 04:22:45;;;;;;;7.63;1.63;;;;;;;20.17;100.00;96315.53;5097188;28;20219;-69
2023/06/21 04:25:11;;;;;;;5.90;2.13;;;;;;;20.27;100.00;96326.47;5097004;28;20205;-70
2023/06/21 04:27:39;;;;;;;3.40;1.63;;;;;;;20.27;100.00;96334.50;5097458;28;20207;-69
2023/06/21 04:30:09;;;;;;;7.78;2.13;;;;;;;20.45;100.00;96334.34;5097125;28;20316;-68
2023/06/21 04:32:35;;;;;;;3.38;1.13;;;;;;;20.38;100.00;96341.72;5097007;28;20307;-69
2023/06/21 04:35:02;;;;;;;2.97;1.00;;;;;;;20.27;100.00;96364.75;5097971;28;20291;-70
2023/06/21 04:37:29;;;;;;;3.17;1.45;;;;;;;20.09;100.00;96373.97;5096611;28;21079;-68
2023/06/21 04:39:57;;;;;;;9.77;1.65;;;;;;;19.95;100.00;96380.56;5096988;28;20667;-69
2023/06/21 04:42:23;;;;;;;4.85;2.05;;;;;;;19.82;100.00;96394.94;5097483;28;20219;-69
2023/06/21 04:44:50;;;;;;;9.23;2.58;;;;;;;19.76;100.00;96385.16;5097170;28;20207;-69
2023/06/21 04:47:16;;;;;;;9.52;3.17;;;;;;;19.68;100.00;96374.00;5096479;28;20195;-69
2023/06/21 04:49:43;;;;;;;4.00;2.67;;;;;;;19.94;100.00;96355.66;5096648;28;20203;-69
2023/06/21 04:52:10;;;;;;;4.78;1.83;;;;;;;19.94;100.00;96325.44;5097221;28;20230;-69
2023/06/21 04:54:37;;;;;;;6.78;2.08;;;;;;;19.98;100.00;96316.69;5096770;28;21094;-68
2023/06/21 04:57:06;;;;;;;11.48;2.90;;;;;;;20.04;100.00;96368.47;5096992;28;20230;-69
2023/06/21 04:59:33;;;;;;;3.80;2.35;;;;;;;19.99;100.00;96403.94;5095859;28;20227;-69
2023/06/21 05:02:00;;;;;;;8.85;3.78;;;;;;;19.96;100.00;96409.75;5096180;28;20231;-69
2023/06/21 05:04:26;;;;;;;6.20;3.15;;;;;;;19.98;100.00;96418.34;5096678;28;20195;-68
2023/06/21 05:06:53;;;;;;;6.38;3.58;;;;;;;20.15;100.00;96408.63;5097296;28;20214;-68
2023/06/21 05:09:19;;;;;;;8.77;4.05;;;;;;;20.14;100.00;96390.94;5096680;28;20210;-68
2023/06/21 05:11:46;;;;;;;9.65;3.00;;;;;;;20.26;100.00;96376.53;5096094;28;20219;-67
2023/06/21 05:14:13;;;;;;;10.70;4.65;;;;;;;20.49;100.00;96379.19;5097118;28;21078;-68
2023/06/21 05:16:40;;;;;;;13.02;4.97;;;;;;;20.43;100.00;96392.66;5097143;28;20584;-70
2023/06/21 05:19:07;;;;;;;13.05;5.50;;;;;;;20.49;100.00;96373.81;5096269;28;20268;-69
2023/06/21 05:21:33;;;;;;;11.45;4.78;;;;;;;20.62;100.00;96386.97;5096662;28;20231;-71
2023/06/21 05:24:00;;;;;;;14.15;6.32;;;;;;;20.67;100.00;96375.53;5096932;28;20867;-69
2023/06/21 05:26:26;;;;;;;13.55;4.90;;;;;;;20.61;100.00;96360.41;5096463;28;20683;-70
2023/06/21 05:28:53;;;;;;;14.95;5.97;;;;;;;20.56;100.00;96371.03;5095745;28;20972;-67
2023/06/21 05:31:21;;;;;;;12.88;5.60;;;;;;;20.72;100.00;96389.03;5096967;28;20219;-69
2023/06/21 05:33:47;;;;;;;11.30;4.93;;;;;;;20.67;100.00;96402.31;5097013;28;20214;-69
2023/06/21 05:36:13;;;;;;;13.00;5.57;;;;;;;20.62;100.00;96418.25;5097130;28;20198;-70
2023/06/21 05:38:40;;;;;;;14.10;5.38;;;;;;;20.68;100.00;96420.00;5096474;28;20242;-67
2023/06/21 05:41:06;;;;;;;8.32;4.32;;;;;;;20.87;100.00;96406.25;5096623;28;20219;-69
2023/06/21 05:43:33;;;;;;;9.93;4.78;;;;;;;21.07;100.00;96394.09;5096543;28;20204;-67
2023/06/21 05:45:59;;;;;;;24.33;7.78;;;;;;;21.11;100.00;96400.59;5096757;28;20203;-67
2023/06/21 05:48:29;;;;;;;16.90;6.50;;;;;;;21.15;100.00;96407.13;5096089;28;20195;-68
2023/06/21 05:50:55;;;;;;;17.38;5.82;;;;;;;20.90;100.00;96411.13;5096413;28;20202;-68
2023/06/21 05:53:22;;;;;;;20.02;6.53;;;;;;;20.89;100.00;96404.97;5096589;28;20210;-70
2023/06/21 05:55:49;;;;;;;14.95;6.43;;;;;;;21.03;100.00;96417.06;5096209;28;20222;-69
2023/06/21 05:58:15;;;;;;;14.63;5.82;;;;;;;21.22;100.00;96413.16;5096212;28;20258;-68
2023/06/21 06:00:42;;;;;;;12.90;5.65;;;;;;;21.36;100.00;96406.47;5096528;28;20207;-68
2023/06/21 06:03:08;;;;;;;14.18;5.32;;;;;;;21.43;100.00;96409.81;5096395;28;20226;-69
2023/06/21 06:05:37;;;;;;;11.30;4.75;;;;;;;21.50;100.00;96410.50;5096601;28;20374;-69
2023/06/21 06:08:03;;;;;;;10.40;4.80;;;;;;;21.69;100.00;96419.97;5095291;28;20214;-68
2023/06/21 06:10:30;;;;;;;10.77;4.40;;;;;;;21.72;100.00;96428.38;5096343;28;20594;-69
2023/06/21 06:12:56;;;;;;;9.75;4.53;;;;;;;21.81;100.00;96423.44;5095661;28;20219;-68
2023/06/21 06:15:23;;;;;;;10.93;4.80;;;;;;;21.92;100.00;96420.69;5096609;28;20287;-68
2023/06/21 06:17:49;;;;;;;11.38;5.07;;;;;;;22.18;100.00;96420.03;5095021;28;20911;-68
2023/06/21 06:20:16;;;;;;;11.32;3.95;;;;;;;22.25;100.00;96416.13;5095715;28;20721;-67
2023/06/21 06:22:44;;;;;;;9.63;4.53;;;;;;;22.48;100.00;96416.00;5096852;28;20219;-70
2023/06/21 06:25:10;;;;;;;8.93;4.13;;;;;;;22.49;100.00;96425.69;5099475;28;20199;-68
2023/06/21 06:27:38;;;;;;;14.98;5.78;;;;;;;22.56;100.00;96423.63;5099415;28;20207;-70
2023/06/21 06:30:06;;;;;;;9.25;4.68;;;;;;;22.86;100.00;96421.34;5099202;28;20653;-69
2023/06/21 06:32:32;;;;;;;11.15;5.32;;;;;;;22.69;100.00;96409.84;5099069;28;20297;-67
2023/06/21 06:34:58;;;;;;;9.00;4.10;;;;;;;22.95;100.00;96417.19;5099630;28;20196;-70
2023/06/21 06:37:25;;;;;;;8.10;3.60;;;;;;;23.14;100.00;96415.84;5098691;27;20202;-69
2023/06/21 06:39:54;;;;;;;4.68;2.90;;;;;;;23.43;100.00;96418.91;5099552;28;20222;-68
2023/06/21 06:42:21;;;;;;;9.27;4.03;;;;;;;23.46;100.00;96421.09;5099620;27;20714;-69
2023/06/21 06:44:47;;;;;;;5.85;2.95;;;;;;;23.58;100.00;96419.06;5098849;27;20203;-69
2023/06/21 06:47:14;;;;;;;9.10;4.28;;;;;;;23.73;100.00;96411.19;5098122;28;20266;-69
2023/06/21 06:49:41;;;;;;;8.23;3.38;;;;;;;23.86;99.98;96415.34;5098810;28;20207;-69
2023/06/21 06:52:07;;;;;;;10.05;4.03;;;;;;;23.88;99.47;96411.34;5099137;28;20230;-70
2023/06/21 06:54:34;;;;;;;12.98;4.68;;;;;;;23.93;98.02;96412.19;5098759;28;20207;-68
2023/06/21 06:57:02;;;;;;;11.15;4.97;;;;;;;24.09;98.76;96408.53;5099146;28;20207;-67
2023/06/21 06:59:28;;;;;;;13.00;4.80;;;;;;;24.16;98.21;96401.09;5098420;28;20215;-67
2023/06/21 07:01:55;;;;;;;10.05;3.85;;;;;;;24.25;95.28;96404.09;5098577;28;20219;-69
2023/06/21 07:04:21;;;;;;;7.80;4.00;;;;;;;24.44;93.52;96406.19;5098845;28;20203;-70
2023/06/21 07:06:48;;;;;;;8.43;3.72;;;;;;;24.41;94.68;96405.88;5098871;28;20210;-68
2023/06/21 07:09:14;;;;;;;10.52;3.88;;;;;;;24.38;94.08;96401.81;5098443;28;20202;-68
2023/06/21 07:11:40;;;;;;;9.20;3.40;;;;;;;24.42;94.98;96394.84;5098781;28;20318;-70
2023/06/21 07:14:08;;;;;;;7.22;3.75;;;;;;;24.33;95.44;96390.97;5098718;28;20210;-69
2023/06/21 07:16:35;;;;;;;5.57;3.00;;;;;;;24.54;93.85;96397.34;5098871;28;20566;-69
2023/06/21 07:19:03;;;;;;;13.27;4.28;;;;;;;24.53;94.49;96398.41;5097964;28;20219;-68
2023/06/21 07:21:29;;;;;;;8.52;3.38;;;;;;;24.75;92.36;96392.63;5099209;28;20223;-70
2023/06/21 07:23:56;;;;;;;7.50;3.05;;;;;;;25.12;89.35;96382.59;5098760;28;21136;-68
2023/06/21 07:26:22;;;;;;;5.85;3.08;;;;;;;25.26;90.55;96381.03;5098568;28;20582;-70
2023/06/21 07:28:49;;;;;;;4.93;2.80;;;;;;;25.42;87.59;96372.72;5098074;28;20223;-68
2023/06/21 07:31:17;;;;;;;10.18;2.67;;;;;;;25.42;86.50;96372.72;5098665;27;20710;-68
2023/06/21 07:33:44;;;;;;;3.97;3.05;;;;;;;25.26;82.99;96371.03;5097768;28;20318;-69
2023/06/21 07:36:10;;;;;;;5.95;3.33;;;;;;;25.62;85.85;96374.66;5098266;28;20245;-68
2023/06/21 07:38:37;;;;;;;7.85;2.83;;;;;;;25.59;84.21;96364.41;5097694;28;21340;-68
2023/06/21 07:41:03;;;;;;;5.15;2.65;;;;;;;25.70;82.04;96366.91;5097817;28;20693;-70
2023/06/21 07:43:30;;;;;;;6.55;3.00;;;;;;;25.81;81.99;96368.50;5097818;27;21058;-68
2023/06/21 07:45:56;;;;;;;6.03;3.30;;;;;;;25.88;83.18;96363.69;5098193;28;20213;-68
2023/06/21 07:48:24;;;;;;;5.15;2.78;;;;;;;26.10;83.88;96356.91;5097288;28;20195;-69
2023/06/21 07:50:51;;;;;;;4.63;2.78;;;;;;;26.18;81.62;96359.06;5097634;28;20206;-69
2023/06/21 07:53:17;;;;;;;5.00;2.83;;;;;;;26.07;76.97;96356.63;5097691;28;20203;-70
2023/06/21 07:55:44;;;;;;;4.38;2.58;;;;;;;25.99;78.97;96349.09;5097754;27;20218;-68
2023/06/21 07:58:10;;;;;;;4.78;2.47;;;;;;;26.36;76.67;96361.25;5096800;28;20211;-69
2023/06/21 08:00:37;;;;;;;9.77;2.95;;;;;;;26.30;79.49;96367.72;5097658;28;20711;-69
2023/06/21 08:03:04;;;;;;;7.10;2.60;;;;;;;26.33;77.57;96372.56;5097933;28;20224;-69
2023/06/21 08:05:31;;;;;;;5.88;2.50;;;;;;;26.53;77.60;96372.59;5097815;28;20214;-70
2023/06/21 08:08:01;;;;;;;7.35;2.90;;;;;;;26.46;76.12;96374.75;5097358;27;20210;-70
2023/06/21 08:10:27;;;;;;;5.53;2.33;;;;;;;26.47;75.78;96376.38;5097534;28;21055;-70
2023/06/21 08:12:54;;;;;;;6.57;2.97;;;;;;;26.75;76.42;96373.88;5096458;28;20493;-69
2023/06/21 08:15:21;;;;;;;5.63;2.65;;;;;;;26.79;76.60;96371.47;5097113;28;20199;-68
2023/06/21 08:17:48;;;;;;;4.80;2.10;;;;;;;26.94;76.27;96371.41;5096226;28;20207;-69
2023/06/21 08:20:16;;;;;;;7.95;2.72;;;;;;;26.95;71.40;96376.59;5096579;28;20229;-69
2023/06/21 08:22:44;;;;;;;7.72;2.53;;;;;;;27.07;71.52;96368.16;5096519;28;20230;-70
2023/06/21 08:25:10;;;;;;;3.70;2.10;;;;;;;26.96;71.76;96369.25;5097419;28;20195;-69
2023/06/21 08:27:37;;;;;;;3.63;1.95;;;;;;;26.86;68.20;96383.63;5096366;28;20675;-70
2023/06/21 08:30:04;;;;;;;4.75;2.40;;;;;;;26.97;68.28;96390.63;5096062;28;20195;-70
2023/06/21 08:32:31;;;;;;;5.47;2.53;;;;;;;26.96;65.93;96396.31;5096828;28;20582;-71
2023/06/21 08:34:57;;;;;;;3.00;1.88;;;;;;;27.06;68.96;96396.28;5097850;28;20581;-71
2023/06/21 08:37:25;;;;;;;7.63;2.50;;;;;;;27.23;69.24;96390.28;5095879;28;20286;-70
2023/06/21 08:39:53;;;;;;;3.67;2.03;;;;;;;27.55;72.02;96390.66;5095768;28;20237;-69
2023/06/21 08:42:19;;;;;;;4.10;2.20;;;;;;;27.28;66.51;96387.53;5096423;28;20233;-70
2023/06/21 08:44:46;;;;;;;4.05;2.53;;;;;;;27.38;67.94;96379.38;5095773;28;20199;-70
2023/06/21 08:47:15;;;;;;;5.43;2.30;;;;;;;27.78;65.86;96371.06;5096076;28;21282;-71
2023/06/21 08:49:42;;;;;;;4.05;2.33;;;;;;;27.99;65.16;96367.13;5096422;28;20465;-69
2023/06/21 08:52:12;;;;;;;5.53;2.45;;;;;;;28.02;64.43;96367.38;5096490;28;20223;-70
2023/06/21 08:54:44;;;;;;;4.32;2.35;;;;;;;28.16;68.32;96381.13;5096924;28;20195;-70
2023/06/21 08:57:22;;;;;;;9.07;2.42;;;;;;;28.01;64.37;96381.19;5096072;28;20214;-70
2023/06/21 08:59:51;;;;;;;4.75;2.65;;;;;;;28.35;65.39;96388.28;5095427;28;20234;-70
2023/06/21 09:02:28;;;;;;;4.00;2.08;;;;;;;28.47;71.46;96394.94;5096216;28;20275;-69
2023/06/21 09:04:58;;;;;;;4.63;2.78;;;;;;;28.21;66.69;96403.56;5096206;28;20292;-71
2023/06/21 09:07:25;;;;;;;6.50;2.53;;;;;;;27.80;67.47;96401.38;5095112;28;20202;-70
2023/06/21 09:09:53;;;;;;;4.70;2.20;;;;;;;27.73;68.09;96409.00;5096232;28;20687;-71
2023/06/21 09:12:21;;;;;;;4.78;2.00;;;;;;;27.23;69.54;96432.78;5096133;28;20230;-71
2023/06/21 09:14:48;;;;;;;5.47;2.10;;;;;;;27.15;68.34;96455.78;5095943;28;20212;-70
2023/06/21 09:17:15;;;;;;;3.78;2.35;;;;;;;26.74;67.80;96515.59;5095175;28;20660;-70
2023/06/21 09:19:43;;;;;;;3.83;2.03;;;;;;;26.55;68.62;96565.88;5096174;28;20227;-71
2023/06/21 09:22:13;;;;;;;2.55;2.03;;;;;;;26.49;67.45;96687.81;5095851;28;20664;-70
2023/06/21 09:24:39;;;;;;;12.02;1.75;;;;;;;25.35;66.85;96838.16;5096352;28;20571;-70
2023/06/21 09:27:06;;;;;;;5.35;1.90;;;;;;;19.44;100.00;96906.09;5096023;28;20206;-70
2023/06/21 09:29:35;;;;;;;15.13;2.15;;;;;;;27.75;nan;96810.44;5095856;28;20465;-68
2023/06/21 09:32:02;;;;;;;2.15;0.75;;;;;;;19.50;nan;96782.22;5095915;28;20234;-69
2023/06/21 09:34:28;;;;;;;4.32;1.92;;;;;;;18.96;nan;96720.56;5096518;28;20222;-69
2023/06/21 09:36:55;;;;;;;2.50;0.90;;;;;;;18.95;nan;96676.19;5095605;28;20223;-67
2023/06/21 09:39:23;;;;;;;2.88;1.48;;;;;;;19.60;nan;96642.50;5095527;28;20199;-69
2023/06/21 09:41:51;;;;;;;5.20;1.75;;;;;;;19.94;nan;96617.81;5096465;28;20231;-69
2023/06/21 09:44:20;;;;;;;8.40;1.58;;;;;;;20.12;nan;96616.97;5095821;28;20202;-69
2023/06/21 09:46:48;;;;;;;9.75;2.25;;;;;;;20.10;nan;96629.75;5095355;28;20275;-68
2023/06/21 09:49:16;;;;;;;6.85;1.33;;;;;;;19.99;nan;96634.00;5095065;28;20203;-70
2023/06/21 09:51:43;;;;;;;4.35;1.65;;;;;;;20.23;nan;96611.69;5095334;28;20223;-68
2023/06/21 09:54:10;;;;;;;7.00;1.67;;;;;;;20.08;nan;96587.19;5096192;28;20623;-69
2023/06/21 09:56:37;;;;;;;6.70;2.00;;;;;;;20.30;nan;96564.22;5096364;28;20207;-70
2023/06/21 09:59:04;;;;;;;10.68;1.65;;;;;;;20.14;nan;96535.44;5099368;28;20211;-70
2023/06/21 10:01:37;;;;;;;2.92;1.45;;;;;;;20.38;nan;96575.41;5100457;28;20229;-69
2023/06/21 10:04:10;;;;;;;4.72;1.27;;;;;;;20.65;nan;96602.59;5099683;27;20203;-70
2023/06/21 10:06:37;;;;;;;9.95;1.50;;;;;;;20.46;nan;96572.41;5100455;27;20679;-69
2023/06/21 10:09:08;;;;;;;2.72;1.85;;;;;;;21.12;nan;96563.06;5099428;27;20288;-68
2023/06/21 10:11:35;;;;;;;3.42;2.17;;;;;;;21.10;nan;96559.78;5099799;28;20230;-70
2023/06/21 10:14:02;;;;;;;6.78;2.22;;;;;;;21.27;nan;96565.25;5100077;28;20318;-69
2023/06/21 10:16:28;;;;;;;11.70;2.00;;;;;;;21.29;nan;96563.97;5100118;28;20203;-69
2023/06/21 10:18:58;;;;;;;2.30;0.95;;;;;;;20.89;nan;96565.72;5099215;28;20214;-70
2023/06/21 10:21:28;;;;;;;9.30;1.30;;;;;;;21.55;nan;96579.59;5099604;27;20230;-69
2023/06/21 10:23:57;;;;;;;4.55;1.58;;;;;;;21.35;nan;96556.84;5099503;28;20203;-69
2023/06/21 10:26:25;;;;;;;5.05;1.40;;;;;;;21.64;nan;96548.66;5099613;27;21021;-67
2023/06/21 10:28:57;;;;;;;4.22;2.10;;;;;;;21.61;nan;96552.63;5098725;28;20199;-70
2023/06/21 10:31:25;;;;;;;7.82;2.05;;;;;;;21.58;nan;96545.03;5099951;28;20226;-67
2023/06/21 10:33:55;;;;;;;9.90;1.25;;;;;;;21.77;nan;96540.34;5098949;27;20222;-70
2023/06/21 10:36:31;;;;;;;4.85;1.52;;;;;;;21.76;nan;96536.03;5100002;27;20231;-70
2023/06/21 10:39:03;;;;;;;8.98;2.58;;;;;;;21.92;nan;96540.59;5099241;27;20238;-70
2023/06/21 10:41:31;;;;;;;5.30;1.77;;;;;;;22.31;nan;96540.56;5099326;28;20223;-72
2023/06/21 10:43:58;;;;;;;8.35;1.17;;;;;;;22.53;nan;96558.44;5098909;28;20222;-68
2023/06/21 10:46:26;;;;;;;6.18;1.85;;;;;;;22.37;nan;96553.84;5099420;28;20230;-68
2023/06/21 10:48:54;;;;;;;7.65;1.92;;;;;;;22.50;nan;96558.09;5099123;28;20565;-69
2023/06/21 10:51:22;;;;;;;4.10;1.90;;;;;;;22.65;nan;96561.06;5099208;28;20218;-69
2023/06/21 10:53:52;;;;;;;6.45;1.92;;;;;;;23.24;nan;96563.88;5099603;28;20203;-69
2023/06/21 10:56:19;;;;;;;8.00;1.85;;;;;;;23.18;nan;96562.16;5099951;28;20210;-70
2023/06/21 10:58:46;;;;;;;14.18;2.28;;;;;;;23.03;nan;96561.97;5098066;28;20211;-70
2023/06/21 11:01:14;;;;;;;4.85;2.08;;;;;;;23.20;nan;96565.44;5098029;28;20223;-69
2023/06/21 11:03:40;;;;;;;6.75;1.83;;;;;;;23.54;nan;96563.22;5100654;28;20195;-70
2023/06/21 11:06:25;;;;;;;10.38;2.60;;;;;;;24.27;nan;96563.59;5098923;27;21160;-69
2023/06/21 11:08:53;;;;;;;16.30;3.05;;;;;;;24.12;nan;96549.94;5096729;28;20686;-68
2023/06/21 11:11:30;;;;;;;6.93;2.03;;;;;;;24.68;nan;96553.78;5098509;28;20290;-67
2023/06/21 11:13:57;;;;;;;4.20;1.77;;;;;;;24.65;nan;96558.88;5098412;28;20206;-70
2023/06/21 11:16:26;;;;;;;8.80;2.40;;;;;;;24.89;nan;96565.53;5098309;28;20227;-69
2023/06/21 11:18:57;;;;;;;8.45;1.60;;;;;;;24.49;nan;96567.06;5097277;28;20299;-68
2023/06/21 11:21:47;;;;;;;9.45;1.48;;;;;;;25.08;nan;96575.69;5098519;28;20246;-67
2023/06/21 11:24:17;;;;;;;3.40;1.27;;;;;;;25.11;nan;96582.47;5092836;28;20203;-70
2023/06/21 11:26:55;;;;;;;3.90;1.75;;;;;;;25.17;nan;96577.66;5097992;27;20237;-70
2023/06/21 11:29:22;;;;;;;8.20;1.40;;;;;;;25.43;nan;96575.94;5096821;28;20203;-70
2023/06/21 11:31:48;;;;;;;7.72;2.13;;;;;;;25.80;nan;96566.69;5097364;28;20230;-69